createdAt,value
2019-05-05T00:02:07.585Z,3.80
2019-05-05T00:04:54.393Z,4.28
2019-05-05T00:07:28.492Z,3.00
2019-05-05T00:15:51.959Z,3.53
2019-05-05T00:18:25.316Z,3.75
2019-05-05T00:20:56.712Z,3.90
2019-05-05T00:23:26.361Z,3.27
2019-05-05T00:25:55.447Z,4.33
2019-05-05T00:28:25.190Z,3.00
2019-05-05T00:30:55.385Z,3.83
2019-05-05T00:33:28.361Z,3.27
2019-05-05T00:35:57.732Z,3.50
2019-05-05T00:38:27.126Z,3.30
2019-05-05T00:40:57.068Z,3.40
2019-05-05T00:43:26.385Z,3.33
2019-05-05T00:46:00.098Z,3.80
2019-05-05T00:48:35.468Z,4.07
2019-05-05T00:51:05.001Z,3.97
2019-05-05T00:53:34.897Z,39.47
2019-05-05T00:56:06.237Z,22.07
2019-05-05T00:58:37.026Z,5.03
2019-05-05T01:01:28.330Z,4.10
2019-05-05T01:03:57.860Z,4.27
2019-05-05T01:06:29.253Z,4.47
2019-05-05T01:08:58.989Z,3.80
2019-05-05T01:11:28.838Z,3.40
2019-05-05T01:14:00.321Z,4.43
2019-05-05T01:16:29.521Z,4.20
2019-05-05T01:18:58.893Z,3.97
2019-05-05T01:21:28.579Z,4.03
2019-05-05T01:23:57.756Z,3.97
2019-05-05T01:26:31.889Z,4.30
2019-05-05T01:29:02.894Z,4.33
2019-05-05T01:31:34.727Z,4.23
2019-05-05T01:34:14.950Z,4.47
2019-05-05T01:36:45.215Z,4.03
2019-05-05T01:39:30.808Z,4.00
2019-05-05T01:42:05.270Z,3.90
2019-05-05T01:44:35.243Z,4.07
2019-05-05T01:47:05.552Z,3.87
2019-05-05T01:49:34.737Z,4.00
2019-05-05T01:52:04.430Z,4.20
2019-05-05T01:54:35.301Z,4.87
2019-05-05T01:57:05.611Z,4.00
2019-05-05T01:59:36.607Z,3.17
2019-05-05T02:02:06.175Z,4.30
2019-05-05T02:04:35.643Z,4.53
2019-05-05T02:07:05.691Z,4.73
2019-05-05T02:09:35.567Z,5.10
2019-05-05T02:12:05.416Z,4.07
2019-05-05T02:14:35.629Z,4.17
2019-05-05T02:17:05.219Z,4.40
2019-05-05T02:19:35.402Z,4.57
2019-05-05T02:22:09.282Z,4.53
2019-05-05T02:24:40.672Z,4.47
2019-05-05T02:27:09.565Z,5.40
2019-05-05T02:30:00.498Z,4.17
2019-05-05T02:32:47.594Z,4.20
2019-05-05T02:35:16.936Z,5.27
2019-05-05T02:37:47.050Z,6.57
2019-05-05T02:40:17.761Z,5.00
2019-05-05T02:42:48.574Z,4.50
2019-05-05T02:45:45.813Z,4.47
2019-05-05T02:48:16.335Z,5.30
2019-05-05T02:51:07.245Z,5.23
2019-05-05T02:53:40.883Z,6.17
2019-05-05T02:56:18.857Z,5.20
2019-05-05T02:58:54.249Z,4.87
2019-05-05T03:01:44.642Z,4.53
2019-05-05T03:04:15.208Z,5.13
2019-05-05T03:06:48.920Z,5.00
2019-05-05T03:09:21.218Z,4.90
2019-05-05T03:11:54.010Z,4.90
2019-05-05T03:14:26.481Z,4.30
2019-05-05T03:16:58.018Z,4.97
2019-05-05T03:19:27.914Z,4.90
2019-05-05T03:21:58.662Z,4.93
2019-05-05T03:24:29.002Z,4.60
2019-05-05T03:26:58.290Z,4.70
2019-05-05T03:29:28.640Z,4.40
2019-05-05T03:31:57.878Z,4.70
2019-05-05T03:34:28.522Z,4.60
2019-05-05T03:36:58.490Z,4.80
2019-05-05T03:39:31.054Z,4.70
2019-05-05T03:42:29.330Z,4.53
2019-05-05T03:45:05.773Z,4.30
2019-05-05T03:47:36.523Z,4.63
2019-05-05T03:50:06.513Z,5.27
2019-05-05T03:52:35.884Z,5.17
2019-05-05T03:55:07.266Z,4.90
2019-05-05T03:57:36.882Z,5.00
2019-05-05T04:00:09.606Z,5.13
2019-05-05T04:02:53.874Z,5.17
2019-05-05T04:05:29.867Z,5.17
2019-05-05T04:07:59.471Z,5.80
2019-05-05T04:10:28.508Z,5.23
2019-05-05T04:12:58.473Z,5.13
2019-05-05T04:15:27.878Z,4.73
2019-05-05T04:18:16.785Z,5.50
2019-05-05T04:20:46.007Z,5.50
2019-05-05T04:23:15.643Z,4.97
2019-05-05T04:25:45.123Z,5.70
2019-05-05T04:28:14.758Z,6.53
2019-05-05T04:30:44.570Z,6.20
2019-05-05T04:33:14.474Z,6.53
2019-05-05T04:35:44.560Z,5.77
2019-05-05T04:38:14.013Z,6.07
2019-05-05T04:40:44.207Z,5.90
2019-05-05T04:43:14.321Z,5.77
2019-05-05T04:45:44.316Z,5.97
2019-05-05T04:48:31.888Z,5.60
2019-05-05T04:51:13.935Z,5.67
2019-05-05T04:54:01.129Z,5.40
2019-05-05T04:56:30.295Z,6.40
2019-05-05T04:59:00.262Z,6.37
2019-05-05T05:01:29.829Z,7.10
2019-05-05T05:04:09.380Z,6.67
2019-05-05T05:06:43.612Z,6.90
2019-05-05T05:09:14.633Z,6.57
2019-05-05T05:11:44.482Z,6.97
2019-05-05T05:14:14.741Z,6.80
2019-05-05T05:16:44.091Z,6.17
2019-05-05T05:19:13.884Z,6.47
2019-05-05T05:21:43.675Z,7.57
2019-05-05T05:24:14.615Z,6.70
2019-05-05T05:26:44.247Z,6.87
2019-05-05T05:29:15.131Z,8.30
2019-05-05T05:31:44.611Z,8.70
2019-05-05T05:34:14.808Z,8.00
2019-05-05T05:36:46.199Z,7.63
2019-05-05T05:39:33.591Z,7.40
2019-05-05T05:42:04.518Z,7.10
2019-05-05T05:44:50.772Z,6.87
2019-05-05T05:47:35.546Z,7.90
2019-05-05T05:50:11.738Z,7.30
2019-05-05T05:52:43.622Z,7.60
2019-05-05T05:55:14.595Z,7.83
2019-05-05T05:57:44.088Z,8.00
2019-05-05T06:00:14.510Z,8.20
2019-05-05T06:02:44.063Z,8.57
2019-05-05T06:05:14.771Z,8.37
2019-05-05T06:07:46.695Z,8.00
2019-05-05T06:10:24.324Z,7.97
2019-05-05T06:12:47.499Z,7.93
2019-05-05T06:15:17.507Z,8.60
2019-05-05T06:17:46.650Z,7.97
2019-05-05T06:20:15.903Z,8.70
2019-05-05T06:22:45.265Z,8.10
2019-05-05T06:25:16.770Z,8.00
2019-05-05T06:27:46.371Z,8.10
2019-05-05T06:30:16.040Z,8.13
2019-05-05T06:32:45.798Z,8.83
2019-05-05T06:35:15.382Z,8.17
2019-05-05T06:37:54.440Z,7.50
2019-05-05T06:40:44.273Z,7.60
2019-05-05T06:43:38.905Z,7.93
2019-05-05T06:46:10.362Z,7.37
2019-05-05T06:48:39.932Z,7.23
2019-05-05T06:51:10.117Z,7.27
2019-05-05T06:53:39.454Z,7.77
2019-05-05T06:56:08.645Z,7.90
2019-05-05T06:58:40.690Z,6.97
2019-05-05T07:01:10.275Z,7.10
2019-05-05T07:03:39.606Z,8.03
2019-05-05T07:06:08.943Z,7.40
2019-05-05T07:08:38.612Z,7.03
2019-05-05T07:11:07.694Z,6.50
2019-05-05T07:13:37.338Z,7.40
2019-05-05T07:16:06.407Z,6.07
2019-05-05T07:18:36.017Z,6.33
2019-05-05T07:21:05.322Z,6.87
2019-05-05T07:23:34.933Z,6.90
2019-05-05T07:26:04.419Z,6.63
2019-05-05T07:28:34.587Z,7.00
2019-05-05T07:31:06.002Z,7.33
2019-05-05T07:33:35.387Z,7.50
2019-05-05T07:36:24.852Z,6.57
2019-05-05T07:38:54.755Z,7.60
2019-05-05T07:41:24.156Z,7.07
2019-05-05T07:43:54.231Z,7.50
2019-05-05T07:46:24.222Z,7.10
2019-05-05T07:48:54.527Z,7.93
2019-05-05T07:51:24.299Z,8.38
2019-05-05T07:53:54.674Z,8.10
2019-05-05T07:56:24.735Z,7.80
2019-05-05T07:58:54.438Z,7.60
2019-05-05T08:01:24.456Z,7.55
2019-05-05T08:03:54.010Z,7.85
2019-05-05T08:06:23.770Z,7.70
2019-05-05T08:08:54.578Z,7.78
2019-05-05T08:11:24.305Z,8.15
2019-05-05T08:13:54.760Z,8.28
2019-05-05T08:16:40.892Z,7.97
2019-05-05T08:19:38.307Z,7.70
2019-05-05T08:22:07.481Z,7.72
2019-05-05T08:25:04.907Z,7.33
2019-05-05T08:27:49.298Z,7.70
2019-05-05T08:30:36.930Z,7.15
2019-05-05T08:33:05.969Z,7.30
2019-05-05T08:35:35.892Z,7.75
2019-05-05T08:38:05.061Z,7.42
2019-05-05T08:40:34.753Z,7.12
2019-05-05T08:43:04.734Z,7.50
2019-05-05T08:45:34.925Z,7.40
2019-05-05T08:48:04.997Z,7.47
2019-05-05T08:50:35.086Z,6.97
2019-05-05T08:53:08.299Z,7.03
2019-05-05T08:55:35.951Z,6.55
2019-05-05T08:58:05.707Z,7.00
2019-05-05T09:00:35.373Z,6.70
2019-05-05T09:03:04.489Z,6.87
2019-05-05T09:05:34.484Z,6.80
2019-05-05T09:08:04.648Z,7.20
2019-05-05T09:10:34.587Z,7.03
2019-05-05T09:13:03.926Z,5.70
2019-05-05T09:15:34.222Z,5.53
2019-05-05T09:18:05.111Z,6.40
2019-05-05T09:20:34.959Z,6.30
2019-05-05T09:23:04.389Z,7.40
2019-05-05T09:26:10.013Z,6.55
2019-05-05T09:28:46.642Z,6.25
2019-05-05T09:31:16.611Z,6.30
2019-05-05T09:33:46.208Z,6.30
2019-05-05T09:36:17.012Z,5.63
2019-05-05T09:38:46.653Z,6.10
2019-05-05T09:41:16.542Z,6.50
2019-05-05T09:43:45.758Z,6.50
2019-05-05T09:46:15.263Z,6.30
2019-05-05T09:48:44.358Z,6.62
2019-05-05T09:51:14.430Z,6.90
2019-05-05T09:53:44.814Z,6.62
2019-05-05T09:56:14.631Z,6.40
2019-05-05T09:58:45.349Z,6.47
2019-05-05T10:01:15.626Z,6.70
2019-05-05T10:03:45.266Z,6.53
2019-05-05T10:06:14.450Z,6.60
2019-05-05T10:08:44.666Z,6.28
2019-05-05T10:11:16.348Z,6.83
2019-05-05T10:13:45.175Z,7.03
2019-05-05T10:16:15.113Z,6.72
2019-05-05T10:18:44.926Z,6.47
2019-05-05T10:21:17.565Z,5.80
2019-05-05T10:23:47.886Z,6.20
2019-05-05T10:26:17.470Z,6.55
2019-05-05T10:28:46.647Z,6.40
2019-05-05T10:31:15.662Z,7.00
2019-05-05T10:33:51.072Z,6.45
2019-05-05T10:36:20.167Z,5.47
2019-05-05T10:38:53.802Z,5.33
2019-05-05T10:41:24.226Z,5.72
2019-05-05T10:43:54.717Z,6.17
2019-05-05T10:46:24.175Z,6.25
2019-05-05T10:48:53.873Z,5.95
2019-05-05T10:51:25.628Z,6.10
2019-05-05T10:53:54.702Z,5.75
2019-05-05T10:56:24.209Z,5.80
2019-05-05T10:58:55.285Z,6.45
2019-05-05T11:01:25.003Z,6.40
2019-05-05T11:03:55.205Z,5.95
2019-05-05T11:06:25.120Z,5.87
2019-05-05T11:08:55.059Z,5.72
2019-05-05T11:11:24.665Z,6.42
2019-05-05T11:13:54.482Z,7.20
2019-05-05T11:16:24.002Z,7.12
2019-05-05T11:18:54.298Z,8.30
2019-05-05T11:21:23.748Z,7.55
2019-05-05T11:23:54.071Z,7.20
2019-05-05T11:26:24.658Z,7.40
2019-05-05T11:28:55.051Z,7.67
2019-05-05T11:31:25.216Z,5.83
2019-05-05T11:34:06.515Z,6.50
2019-05-05T11:37:06.670Z,6.08
2019-05-05T11:39:36.429Z,6.12
2019-05-05T11:42:05.862Z,5.47
2019-05-05T11:44:36.926Z,5.97
2019-05-05T11:47:06.718Z,5.72
2019-05-05T11:49:35.884Z,6.20
2019-05-05T11:52:05.625Z,6.35
2019-05-05T11:54:34.633Z,5.92
2019-05-05T11:57:04.493Z,6.10
2019-05-05T11:59:34.474Z,5.90
2019-05-05T12:07:01.066Z,4.73
2019-05-05T12:09:58.009Z,4.85
2019-05-05T12:12:27.770Z,5.03
2019-05-05T12:15:01.151Z,4.10
2019-05-05T12:17:36.620Z,4.33
2019-05-05T12:20:10.007Z,4.80
2019-05-05T12:22:39.676Z,4.90
2019-05-05T12:25:28.701Z,4.70
2019-05-05T12:28:05.829Z,4.70
2019-05-05T12:30:35.335Z,5.22
2019-05-05T12:33:04.827Z,5.45
2019-05-05T12:35:34.547Z,4.83
2019-05-05T12:38:03.583Z,4.85
2019-05-05T12:40:33.723Z,5.08
2019-05-05T12:43:04.205Z,5.00
2019-05-05T12:45:35.647Z,5.00
2019-05-05T12:48:24.028Z,4.97
2019-05-05T12:50:53.843Z,4.27
2019-05-05T12:53:23.777Z,3.97
2019-05-05T12:55:53.875Z,4.58
2019-05-05T12:58:23.335Z,5.05
2019-05-05T13:01:04.071Z,4.93
2019-05-05T13:03:34.576Z,4.47
2019-05-05T13:06:04.164Z,4.78
2019-05-05T13:08:34.083Z,4.50
2019-05-05T13:11:04.134Z,4.20
2019-05-05T13:13:34.575Z,4.20
2019-05-05T13:16:04.381Z,4.53
2019-05-05T13:18:34.120Z,4.10
2019-05-05T13:21:16.817Z,4.20
2019-05-05T13:24:05.504Z,4.25
2019-05-05T13:26:54.192Z,4.20
2019-05-05T13:29:24.571Z,4.55
2019-05-05T13:31:55.089Z,4.85
2019-05-05T13:34:24.172Z,5.35
2019-05-05T13:36:53.283Z,5.35
2019-05-05T13:39:24.570Z,5.50
2019-05-05T13:41:53.989Z,5.70
2019-05-05T13:44:46.670Z,5.58
2019-05-05T13:47:15.769Z,5.50
2019-05-05T13:49:45.190Z,5.33
2019-05-05T13:52:17.605Z,5.20
2019-05-05T13:54:47.184Z,5.07
2019-05-05T13:57:16.272Z,6.12
2019-05-05T13:59:45.703Z,4.50
2019-05-05T14:02:14.862Z,5.07
2019-05-05T14:04:45.371Z,5.23
2019-05-05T14:07:14.770Z,4.93
2019-05-05T14:15:17.467Z,4.13
2019-05-05T14:17:50.377Z,5.15
2019-05-05T14:20:20.154Z,4.40
2019-05-05T14:22:51.294Z,4.83
2019-05-05T14:25:24.190Z,4.65
2019-05-05T14:27:54.313Z,4.58
2019-05-05T14:30:54.917Z,4.70
2019-05-05T14:33:27.242Z,4.42
2019-05-05T14:36:15.835Z,4.80
2019-05-05T14:38:50.785Z,4.30
2019-05-05T14:41:21.142Z,4.92
2019-05-05T14:43:50.912Z,5.40
2019-05-05T14:46:41.509Z,5.95
2019-05-05T14:49:10.662Z,4.65
2019-05-05T14:51:39.753Z,3.50
2019-05-05T14:54:10.768Z,3.50
2019-05-05T14:56:40.016Z,3.22
2019-05-05T14:59:09.592Z,3.33
2019-05-05T15:01:39.314Z,3.70
2019-05-05T15:04:10.041Z,3.42
2019-05-05T15:07:04.310Z,3.55
2019-05-05T15:09:39.512Z,3.40
2019-05-05T15:12:27.930Z,3.90
2019-05-05T15:14:57.338Z,3.87
2019-05-05T15:17:27.202Z,4.00
2019-05-05T15:19:56.374Z,3.98
2019-05-05T15:22:25.778Z,3.95
2019-05-05T15:24:54.885Z,3.35
2019-05-05T15:27:42.061Z,2.98
2019-05-05T15:30:12.209Z,3.87
2019-05-05T15:32:43.677Z,3.10
2019-05-05T15:35:14.290Z,2.77
2019-05-05T15:37:44.258Z,3.02
2019-05-05T15:40:14.357Z,2.83
2019-05-05T15:42:44.191Z,3.00
2019-05-05T15:45:23.540Z,3.17
2019-05-05T15:47:54.024Z,2.75
2019-05-05T15:50:23.644Z,2.75
2019-05-05T15:52:54.463Z,2.95
2019-05-05T15:55:28.609Z,3.50
2019-05-05T15:58:07.688Z,3.60
2019-05-05T16:00:37.007Z,3.20
2019-05-05T16:03:08.679Z,3.75
2019-05-05T16:05:40.448Z,3.70
2019-05-05T16:08:09.537Z,3.42
2019-05-05T16:10:38.874Z,3.65
2019-05-05T16:13:08.503Z,4.00
2019-05-05T16:16:11.532Z,3.80
2019-05-05T16:18:48.669Z,3.40
2019-05-05T16:21:43.879Z,3.62
2019-05-05T16:24:20.264Z,3.50
2019-05-05T16:26:49.713Z,3.35
2019-05-05T16:29:19.809Z,3.40
2019-05-05T16:31:49.624Z,3.30
2019-05-05T16:34:20.183Z,3.17
2019-05-05T16:36:49.854Z,2.70
2019-05-05T16:39:19.602Z,2.58
2019-05-05T16:41:48.693Z,2.60
2019-05-05T16:44:19.058Z,2.52
2019-05-05T16:46:48.621Z,2.50
2019-05-05T16:49:18.284Z,3.08
2019-05-05T16:52:14.514Z,2.70
2019-05-05T16:55:01.133Z,3.00
2019-05-05T16:57:33.872Z,2.60
2019-05-05T17:00:02.559Z,2.30
2019-05-05T17:02:33.249Z,2.40
2019-05-05T17:05:05.255Z,2.52
2019-05-05T17:07:34.889Z,2.23
2019-05-05T17:10:06.301Z,2.65
2019-05-05T17:12:37.960Z,2.50
2019-05-05T17:15:25.273Z,2.35
2019-05-05T17:18:08.816Z,2.37
2019-05-05T17:20:44.141Z,2.60
2019-05-05T17:23:15.576Z,2.57
2019-05-05T17:25:45.454Z,2.80
2019-05-05T17:28:15.067Z,2.27
2019-05-05T17:30:44.643Z,2.52
2019-05-05T17:33:14.502Z,2.33
2019-05-05T17:35:43.802Z,2.60
2019-05-05T17:38:15.617Z,2.58
2019-05-05T17:41:23.462Z,2.50
2019-05-05T17:44:14.314Z,2.15
2019-05-05T17:47:04.474Z,2.60
2019-05-05T17:49:39.989Z,2.35
2019-05-05T17:52:27.871Z,2.60
2019-05-05T17:54:59.385Z,2.60
2019-05-05T17:57:29.020Z,2.95
2019-05-05T17:59:59.099Z,2.85
2019-05-05T18:02:29.830Z,2.70
2019-05-05T18:04:59.754Z,2.60
2019-05-05T18:07:36.765Z,3.00
2019-05-05T18:10:17.298Z,3.10
2019-05-05T18:13:04.395Z,3.10
2019-05-05T18:15:57.400Z,3.85
2019-05-05T18:18:26.792Z,3.50
2019-05-05T18:20:56.794Z,2.75
2019-05-05T18:23:26.107Z,4.03
2019-05-05T18:25:55.925Z,3.50
2019-05-05T18:28:25.128Z,3.08
2019-05-05T18:30:55.203Z,3.77
2019-05-05T18:33:24.721Z,3.25
2019-05-05T18:35:54.258Z,3.25
2019-05-05T18:38:23.655Z,2.87
2019-05-05T18:40:54.273Z,3.37
2019-05-05T18:43:34.077Z,3.05
2019-05-05T18:46:06.196Z,2.90
2019-05-05T18:48:36.037Z,3.43
2019-05-05T18:51:05.442Z,3.47
2019-05-05T18:53:35.236Z,3.27
2019-05-05T18:56:19.882Z,3.45
2019-05-05T18:58:48.957Z,3.80
2019-05-05T19:01:34.965Z,3.02
2019-05-05T19:04:23.050Z,3.15
2019-05-05T19:06:56.781Z,2.90
2019-05-05T19:09:26.081Z,3.10
2019-05-05T19:12:00.495Z,3.40
2019-05-05T19:14:31.974Z,3.58
2019-05-05T19:17:01.520Z,3.02
2019-05-05T19:19:34.551Z,2.77
2019-05-05T19:22:08.574Z,2.67
2019-05-05T19:24:38.024Z,2.97
2019-05-05T19:27:08.230Z,3.08
2019-05-05T19:29:37.617Z,2.70
2019-05-05T19:32:08.013Z,2.75
2019-05-05T19:34:37.409Z,3.00
2019-05-05T19:37:06.851Z,2.67
2019-05-05T19:39:36.207Z,2.77
2019-05-05T19:42:05.647Z,2.87
2019-05-05T19:44:35.507Z,2.83
2019-05-05T19:47:24.664Z,2.50
2019-05-05T19:50:33.727Z,2.30
2019-05-05T19:53:04.604Z,3.55
2019-05-05T19:55:36.315Z,2.83
2019-05-05T19:58:05.974Z,2.45
2019-05-05T20:00:38.516Z,3.03
2019-05-05T20:03:09.058Z,2.70
2019-05-05T20:05:38.744Z,3.00
2019-05-05T20:08:08.386Z,2.40
2019-05-05T20:10:37.836Z,2.65
2019-05-05T20:13:08.975Z,2.50
2019-05-05T20:15:44.660Z,2.70
2019-05-05T20:18:14.265Z,2.95
2019-05-05T20:20:45.952Z,3.00
2019-05-05T20:23:15.654Z,2.90
2019-05-05T20:25:48.097Z,2.90
2019-05-05T20:33:20.957Z,2.63
2019-05-05T20:36:17.902Z,2.90
2019-05-05T20:38:54.694Z,2.80
2019-05-05T20:41:24.974Z,2.40
2019-05-05T20:43:56.212Z,2.47
2019-05-05T20:46:27.700Z,2.67
2019-05-05T20:48:58.021Z,2.80
2019-05-05T20:51:27.329Z,2.70
2019-05-05T20:53:56.652Z,2.83
2019-05-05T20:56:26.455Z,4.07
2019-05-05T20:58:57.125Z,3.50
2019-05-05T21:01:27.494Z,2.77
2019-05-05T21:03:57.334Z,2.80
2019-05-05T21:06:27.778Z,2.73
2019-05-05T21:08:58.322Z,2.80
2019-05-05T21:11:29.221Z,3.10
2019-05-05T21:14:03.993Z,2.70
2019-05-05T21:16:34.254Z,2.67
2019-05-05T21:19:07.679Z,2.77
2019-05-05T21:21:39.771Z,3.23
2019-05-05T21:24:09.750Z,3.50
2019-05-05T21:26:55.893Z,3.40
2019-05-05T21:29:37.662Z,3.27
2019-05-05T21:31:56.094Z,3.62
2019-05-05T21:34:25.533Z,3.50
2019-05-05T21:36:55.481Z,3.67
2019-05-05T21:39:28.402Z,3.80
2019-05-05T21:41:57.824Z,3.35
2019-05-05T21:44:27.054Z,4.05
2019-05-05T21:46:59.163Z,3.70
2019-05-05T21:49:28.518Z,3.80
2019-05-05T21:52:08.225Z,3.47
2019-05-05T21:54:51.562Z,4.15
2019-05-05T21:57:34.597Z,3.30
2019-05-05T22:00:09.813Z,3.40
2019-05-05T22:02:39.224Z,3.30
2019-05-05T22:05:10.941Z,2.95
2019-05-05T22:07:41.286Z,3.12
2019-05-05T22:10:14.766Z,3.30
2019-05-05T22:12:44.790Z,2.90
2019-05-05T22:15:16.809Z,3.00
2019-05-05T22:17:46.518Z,2.90
2019-05-05T22:20:22.783Z,3.02
2019-05-05T22:22:54.171Z,2.98
2019-05-05T22:25:23.947Z,2.87
2019-05-05T22:27:54.527Z,3.10
2019-05-05T22:30:23.925Z,2.85
2019-05-05T22:32:53.351Z,3.02
2019-05-05T22:35:23.919Z,2.87
2019-05-05T22:37:54.554Z,2.75
2019-05-05T22:40:24.612Z,2.77
2019-05-05T22:42:54.764Z,3.20
2019-05-05T22:45:24.318Z,3.52
2019-05-05T22:47:54.348Z,2.80
2019-05-05T22:50:24.829Z,2.60
2019-05-05T22:52:54.605Z,3.20
2019-05-05T22:55:25.064Z,2.67
2019-05-05T22:57:55.421Z,2.85
2019-05-05T23:00:29.629Z,2.70
2019-05-05T23:03:05.518Z,2.85
2019-05-05T23:05:46.627Z,2.80
2019-05-05T23:08:18.353Z,3.00
2019-05-05T23:10:47.778Z,2.80
2019-05-05T23:13:17.737Z,2.83
2019-05-05T23:15:54.461Z,3.00
2019-05-05T23:18:26.615Z,3.10
2019-05-05T23:21:24.679Z,3.10
2019-05-05T23:24:14.207Z,2.90
2019-05-05T23:26:43.887Z,2.80
2019-05-05T23:29:13.433Z,2.63
2019-05-05T23:31:44.471Z,3.00
2019-05-05T23:34:14.703Z,3.27
2019-05-05T23:44:11.463Z,3.30
2019-05-05T23:46:40.821Z,2.63
2019-05-05T23:49:10.125Z,2.67
2019-05-05T23:51:40.039Z,2.63
2019-05-05T23:54:09.771Z,3.10
2019-05-05T23:56:39.236Z,2.90
2019-05-05T23:59:08.450Z,2.73
